Terminal Aerodrome Forecast
Issued by NWS

Home | Current Version | Previous Version | Text Only | Print | Product List | Glossary On
Versions: 1 2 3 4 5 6 7 8 9 10 11 12 13 14 15 16
821
FTUS42 TJSJ 210531
TAFJBQ
TAF
TJBQ 210531Z 2106/2206 11013G16KT P6SM VCSH SCT023 SCT035 SCT045
     FM211300 08020G30KT P6SM VCSH SCT030 BKN050
     FM211700 09023G32KT P6SM VCSH SCT026 BKN050
     FM220200 09018G26KT P6SM VCSH SCT025 BKN045
      AMD NOT SKED TIL 211100=

USA.gov is the U.S. government's official web portal to all federal, state and local government web resources and services.